Time;durP1;ratioP1;P1;durP2;ratioP2;P2;SDS_P1;SDS_P2;PMS_P1;PMS_P2;Temp;Humidity;BMP_temperature;BMP_pressure;BME280_temperature;BME280_humidity;BME280_pressure;Samples;Min_cycle;Max_cycle;Signal;HPM_P1;HPM_P2
2023/12/24 00:01:06;;;;;;;21.87;4.87;;;8.30;86.40;;;;;;5025689;28;20120;-77
2023/12/24 00:03:33;;;;;;;23.67;4.57;;;8.30;86.30;;;;;;5026081;28;20065;-79
2023/12/24 00:05:59;;;;;;;25.93;5.00;;;8.30;86.30;;;;;;5025404;28;20044;-80
2023/12/24 00:08:28;;;;;;;27.00;5.30;;;8.30;86.30;;;;;;5025908;28;20049;-79
2023/12/24 00:10:55;;;;;;;22.10;5.17;;;8.40;86.00;;;;;;5025331;28;20063;-79
2023/12/24 00:13:20;;;;;;;28.27;4.97;;;8.40;86.10;;;;;;5018581;28;20042;-80
2023/12/24 00:15:46;;;;;;;22.33;4.53;;;8.40;86.20;;;;;;5023979;28;20056;-80
2023/12/24 00:18:11;;;;;;;19.57;4.77;;;8.40;86.20;;;;;;5025194;28;20051;-79
2023/12/24 00:20:37;;;;;;;17.70;4.17;;;8.40;86.10;;;;;;5019710;28;20073;-80
2023/12/24 00:23:07;;;;;;;20.57;4.77;;;8.40;86.00;;;;;;5020492;28;20484;-79
2023/12/24 00:25:35;;;;;;;18.70;4.80;;;8.40;86.10;;;;;;5020015;28;20489;-79
2023/12/24 00:28:00;;;;;;;20.50;4.80;;;8.40;86.00;;;;;;4998096;28;20046;-76
2023/12/24 00:30:27;;;;;;;19.23;4.40;;;8.40;86.00;;;;;;5019058;28;20053;-80
2023/12/24 00:32:56;;;;;;;25.80;4.97;;;8.40;86.00;;;;;;5024225;28;20053;-80
2023/12/24 00:35:23;;;;;;;25.00;4.90;;;8.40;86.10;;;;;;5024993;28;20049;-79
2023/12/24 00:37:49;;;;;;;25.47;5.17;;;8.40;86.20;;;;;;5025188;28;20056;-78
2023/12/24 00:40:16;;;;;;;31.50;5.63;;;8.40;86.30;;;;;;5024367;28;20041;-82
2023/12/24 00:42:41;;;;;;;26.20;4.57;;;8.40;86.30;;;;;;5020409;28;20049;-79
2023/12/24 00:45:11;;;;;;;21.53;4.97;;;8.40;86.30;;;;;;5024089;28;20192;-80
2023/12/24 00:47:37;;;;;;;22.60;5.00;;;8.40;86.30;;;;;;5026739;28;20402;-80
2023/12/24 00:50:06;;;;;;;21.77;4.73;;;8.40;86.50;;;;;;5029099;28;20104;-78
2023/12/24 00:52:32;;;;;;;27.87;5.77;;;8.30;86.50;;;;;;5027996;28;20042;-79
2023/12/24 00:54:57;;;;;;;23.70;4.77;;;8.30;86.60;;;;;;5024154;28;20049;-77
2023/12/24 00:57:23;;;;;;;20.67;5.13;;;8.30;86.70;;;;;;5026198;28;20041;-81
2023/12/24 00:59:49;;;;;;;20.63;5.00;;;8.30;86.80;;;;;;5026471;28;20049;-79
2023/12/24 01:02:15;;;;;;;22.10;5.03;;;8.30;86.90;;;;;;5024913;28;20049;-80
2023/12/24 01:04:40;;;;;;;20.23;5.10;;;8.30;86.90;;;;;;5020671;28;20056;-79
2023/12/24 01:07:06;;;;;;;23.93;4.73;;;8.30;87.00;;;;;;5042744;28;20152;-81
2023/12/24 01:09:31;;;;;;;20.80;4.67;;;8.30;87.10;;;;;;5029775;28;20854;-79
2023/12/24 01:11:57;;;;;;;16.60;4.43;;;8.30;87.20;;;;;;5025922;28;20513;-79
2023/12/24 01:14:23;;;;;;;20.70;4.50;;;8.30;87.20;;;;;;5026504;28;20378;-79
2023/12/24 01:16:49;;;;;;;20.13;4.83;;;8.30;87.30;;;;;;5025946;28;20505;-79
2023/12/24 01:19:14;;;;;;;19.13;4.60;;;8.20;87.30;;;;;;5025629;28;20148;-78
2023/12/24 01:21:40;;;;;;;23.33;4.83;;;8.30;87.30;;;;;;5025377;28;20357;-83
2023/12/24 01:24:06;;;;;;;26.77;5.30;;;8.30;87.20;;;;;;5028011;28;20053;-81
2023/12/24 01:26:34;;;;;;;21.43;4.60;;;8.30;87.10;;;;;;5027488;28;20048;-80
2023/12/24 01:29:00;;;;;;;18.87;4.47;;;8.30;87.20;;;;;;5027487;28;20050;-78
2023/12/24 01:31:27;;;;;;;19.80;4.33;;;8.30;87.10;;;;;;5027928;28;20452;-81
2023/12/24 01:33:53;;;;;;;21.00;4.40;;;8.30;87.00;;;;;;5012620;28;20053;-80
2023/12/24 01:36:19;;;;;;;15.77;4.00;;;8.40;87.10;;;;;;5023215;28;20045;-79
2023/12/24 01:38:48;;;;;;;21.40;3.80;;;8.40;87.10;;;;;;5026977;28;20045;-79
2023/12/24 01:41:14;;;;;;;18.03;4.47;;;8.30;87.10;;;;;;5026446;28;20084;-79
2023/12/24 01:43:43;;;;;;;18.80;3.70;;;8.40;87.20;;;;;;5021483;28;20077;-81
2023/12/24 01:46:11;;;;;;;18.73;4.67;;;8.40;87.10;;;;;;5027926;28;20053;-79
2023/12/24 01:48:38;;;;;;;21.33;4.80;;;8.30;87.20;;;;;;5028392;28;20046;-78
2023/12/24 01:51:04;;;;;;;13.97;4.57;;;8.30;87.20;;;;;;5026551;28;20045;-80
2023/12/24 01:53:31;;;;;;;16.93;4.90;;;8.30;87.40;;;;;;5026685;28;20128;-81
2023/12/24 01:56:00;;;;;;;15.83;4.37;;;8.30;87.50;;;;;;5026745;28;20056;-79
2023/12/24 01:58:26;;;;;;;19.90;5.00;;;8.30;87.60;;;;;;5043791;28;20046;-81
2023/12/24 02:00:53;;;;;;;23.60;4.93;;;8.30;87.70;;;;;;5008793;28;20414;-79
2023/12/24 02:03:19;;;;;;;16.20;4.80;;;8.30;87.90;;;;;;5009441;28;20176;-81
2023/12/24 02:05:50;;;;;;;19.00;4.93;;;8.20;87.90;;;;;;5026749;28;20060;-78
2023/12/24 02:08:18;;;;;;;19.40;4.88;;;8.20;88.10;;;;;;5027796;28;20045;-81
2023/12/24 02:10:45;;;;;;;23.33;5.53;;;8.30;88.10;;;;;;5026960;28;20051;-81
2023/12/24 02:13:11;;;;;;;22.73;5.37;;;8.20;88.20;;;;;;5028041;28;20128;-78
2023/12/24 02:15:38;;;;;;;21.87;4.90;;;8.20;88.30;;;;;;5026229;28;20092;-78
2023/12/24 02:18:06;;;;;;;23.70;5.03;;;8.20;88.30;;;;;;5011021;28;20557;-78
2023/12/24 02:20:32;;;;;;;21.80;5.57;;;8.20;88.40;;;;;;5005336;28;20072;-80
2023/12/24 02:22:58;;;;;;;28.83;5.87;;;8.20;88.40;;;;;;5007147;28;20053;-77
2023/12/24 02:25:25;;;;;;;24.93;5.67;;;8.20;88.40;;;;;;5020452;28;20398;-81
2023/12/24 02:28:26;;;;;;;19.13;5.77;;;8.30;88.50;;;;;;5027354;28;20121;-80
2023/12/24 02:30:57;;;;;;;17.90;4.93;;;8.30;88.40;;;;;;5001041;28;20152;-79
2023/12/24 02:33:24;;;;;;;24.30;5.82;;;8.30;88.40;;;;;;5025712;28;20049;-80
2023/12/24 02:35:51;;;;;;;24.93;5.57;;;8.30;88.40;;;;;;5025003;28;20440;-76
2023/12/24 02:38:16;;;;;;;24.80;6.03;;;8.30;88.50;;;;;;5024696;28;20446;-78
2023/12/24 02:40:42;;;;;;;22.93;5.90;;;8.30;88.50;;;;;;5025131;28;20081;-80
2023/12/24 02:43:10;;;;;;;19.20;5.90;;;8.30;88.60;;;;;;5017211;28;20057;-78
2023/12/24 02:45:36;;;;;;;29.77;6.10;;;8.30;88.70;;;;;;5026068;28;20049;-79
2023/12/24 02:48:02;;;;;;;23.03;5.50;;;8.30;88.60;;;;;;5027626;28;20059;-80
2023/12/24 02:50:29;;;;;;;32.43;5.83;;;8.30;88.70;;;;;;5027244;28;20049;-79
2023/12/24 02:52:54;;;;;;;17.53;4.60;;;8.30;88.70;;;;;;5026201;28;20459;-78
2023/12/24 02:55:20;;;;;;;22.07;5.13;;;8.30;88.70;;;;;;5025528;28;20533;-77
2023/12/24 02:57:47;;;;;;;23.70;4.80;;;8.30;88.70;;;;;;5025064;28;20124;-82
2023/12/24 03:00:12;;;;;;;18.17;4.70;;;8.30;88.60;;;;;;5026506;28;20404;-78
2023/12/24 03:02:38;;;;;;;20.70;5.37;;;8.40;88.70;;;;;;5026102;28;20164;-80
2023/12/24 03:05:04;;;;;;;19.90;5.20;;;8.40;88.60;;;;;;5026527;28;20053;-83
2023/12/24 03:07:30;;;;;;;20.03;5.40;;;8.40;88.60;;;;;;5025489;28;20061;-80
2023/12/24 03:09:56;;;;;;;24.27;5.30;;;8.40;88.60;;;;;;5024394;28;20050;-81
2023/12/24 03:12:22;;;;;;;28.43;5.20;;;8.40;88.60;;;;;;5006610;28;20135;-80
2023/12/24 03:14:47;;;;;;;21.63;5.00;;;8.40;88.80;;;;;;5025982;28;20463;-78
2023/12/24 03:17:13;;;;;;;19.87;4.40;;;8.40;88.80;;;;;;5026405;28;20124;-80
2023/12/24 03:19:39;;;;;;;21.87;5.07;;;8.40;88.80;;;;;;5026632;28;20476;-79
2023/12/24 03:22:04;;;;;;;23.83;5.27;;;8.40;88.90;;;;;;5026067;28;20452;-78
2023/12/24 03:24:30;;;;;;;18.23;4.60;;;8.40;89.00;;;;;;5026453;28;20057;-81
2023/12/24 03:26:56;;;;;;;14.00;4.40;;;8.40;89.00;;;;;;5025605;28;20061;-80
2023/12/24 03:29:22;;;;;;;21.93;5.00;;;8.40;89.10;;;;;;5026501;28;20513;-79
2023/12/24 03:31:48;;;;;;;21.07;4.37;;;8.50;89.00;;;;;;5025773;28;20057;-81
2023/12/24 03:34:14;;;;;;;11.97;3.50;;;8.40;89.10;;;;;;5008161;28;20377;-79
2023/12/24 03:36:40;;;;;;;12.93;3.43;;;8.50;89.10;;;;;;5015604;28;20531;-81
2023/12/24 03:39:06;;;;;;;19.00;3.53;;;8.50;89.20;;;;;;5026120;28;20056;-81
2023/12/24 03:41:32;;;;;;;17.47;3.33;;;8.50;89.20;;;;;;5024081;28;20052;-79
2023/12/24 03:43:58;;;;;;;9.73;2.83;;;8.50;89.20;;;;;;5020317;28;20062;-80
2023/12/24 03:46:24;;;;;;;11.83;2.87;;;8.50;89.30;;;;;;5025596;28;20049;-77
2023/12/24 03:48:49;;;;;;;10.67;3.17;;;8.50;89.20;;;;;;5026313;28;20488;-80
2023/12/24 03:51:15;;;;;;;10.37;3.10;;;8.50;89.20;;;;;;5026488;28;20523;-81
2023/12/24 03:53:41;;;;;;;13.37;2.90;;;8.50;89.40;;;;;;5025887;28;20049;-81
2023/12/24 03:56:09;;;;;;;7.83;2.93;;;8.50;89.40;;;;;;5025115;28;20042;-81
2023/12/24 03:58:36;;;;;;;6.20;3.03;;;8.50;89.40;;;;;;5025615;28;20056;-81
2023/12/24 04:01:09;;;;;;;7.53;3.17;;;8.60;89.50;;;;;;5006487;28;20093;-79
2023/12/24 04:03:40;;;;;;;5.17;2.63;;;8.60;89.50;;;;;;4989125;28;20058;-81
2023/12/24 04:06:13;;;;;;;9.77;2.90;;;8.60;89.50;;;;;;5018428;28;20060;-81
2023/12/24 04:08:39;;;;;;;11.63;2.70;;;8.60;89.60;;;;;;4992027;28;20041;-81
2023/12/24 04:11:14;;;;;;;9.13;2.93;;;8.60;89.50;;;;;;5023907;28;20430;-81
2023/12/24 04:13:40;;;;;;;6.97;2.67;;;8.60;89.60;;;;;;5025062;28;20088;-79
2023/12/24 04:16:06;;;;;;;6.17;2.40;;;8.60;89.60;;;;;;5024759;28;20053;-80
2023/12/24 04:18:32;;;;;;;6.60;2.57;;;8.60;89.70;;;;;;5025874;28;20053;-79
2023/12/24 04:20:58;;;;;;;9.93;2.50;;;8.60;89.70;;;;;;5022980;28;20083;-81
2023/12/24 04:23:23;;;;;;;9.13;2.00;;;8.60;89.60;;;;;;5022803;28;20505;-80
2023/12/24 04:25:49;;;;;;;7.17;2.20;;;8.60;89.60;;;;;;5027434;28;20057;-83
2023/12/24 04:28:15;;;;;;;5.97;2.07;;;8.60;89.60;;;;;;5030266;28;20368;-78
2023/12/24 04:30:41;;;;;;;6.67;2.00;;;8.60;89.70;;;;;;5013260;28;20054;-80
2023/12/24 04:33:06;;;;;;;4.93;2.30;;;8.60;89.70;;;;;;5018463;28;20111;-82
2023/12/24 04:35:32;;;;;;;9.77;2.70;;;8.60;89.60;;;;;;5028080;28;20136;-80
2023/12/24 04:37:59;;;;;;;9.70;3.10;;;8.60;89.70;;;;;;5028933;28;20132;-79
2023/12/24 04:40:25;;;;;;;5.77;3.00;;;8.60;89.80;;;;;;5029007;28;20053;-81
2023/12/24 04:42:50;;;;;;;7.13;3.57;;;8.60;89.80;;;;;;5020222;28;20050;-82
2023/12/24 04:45:16;;;;;;;9.13;3.80;;;8.70;89.80;;;;;;5029197;28;20069;-81
2023/12/24 04:47:42;;;;;;;10.93;4.17;;;8.70;89.80;;;;;;5028477;28;20497;-80
2023/12/24 04:50:07;;;;;;;12.43;4.10;;;8.70;89.90;;;;;;5028644;28;20408;-79
2023/12/24 04:52:35;;;;;;;11.13;3.97;;;8.70;89.80;;;;;;5029666;28;20485;-80
2023/12/24 04:55:04;;;;;;;12.00;4.07;;;8.70;90.00;;;;;;5029182;28;20120;-80
2023/12/24 04:57:31;;;;;;;16.70;4.90;;;8.80;90.00;;;;;;5028956;28;20184;-80
2023/12/24 04:59:57;;;;;;;9.17;4.20;;;8.80;90.00;;;;;;5028053;28;20056;-81
2023/12/24 05:02:22;;;;;;;12.50;4.37;;;8.80;89.90;;;;;;5028259;28;20416;-79
2023/12/24 05:04:54;;;;;;;15.97;5.03;;;8.80;90.00;;;;;;5029029;28;20121;-80
2023/12/24 05:07:20;;;;;;;12.38;4.72;;;8.80;90.00;;;;;;5026652;28;20056;-81
2023/12/24 05:09:46;;;;;;;15.93;5.80;;;8.90;90.00;;;;;;5028533;28;20184;-77
2023/12/24 05:12:11;;;;;;;24.03;6.53;;;8.90;90.00;;;;;;5027003;28;20565;-79
2023/12/24 05:14:37;;;;;;;20.23;6.83;;;8.90;90.10;;;;;;5028840;28;20440;-79
2023/12/24 05:17:03;;;;;;;20.47;6.97;;;8.90;90.00;;;;;;5027494;28;20397;-80
2023/12/24 05:19:29;;;;;;;22.17;7.53;;;8.90;90.00;;;;;;5029261;28;20100;-81
2023/12/24 05:21:55;;;;;;;24.53;7.17;;;8.90;90.10;;;;;;5026483;28;20054;-81
2023/12/24 05:24:20;;;;;;;24.00;7.30;;;8.90;90.20;;;;;;5010114;28;20382;-79
2023/12/24 05:26:46;;;;;;;22.40;7.93;;;9.00;90.10;;;;;;5027473;28;20053;-80
2023/12/24 05:29:12;;;;;;;23.07;7.30;;;9.00;90.20;;;;;;5024527;28;20156;-81
2023/12/24 05:31:41;;;;;;;24.23;7.17;;;9.00;90.10;;;;;;5007416;28;20120;-79
2023/12/24 05:34:08;;;;;;;24.83;7.00;;;9.00;90.20;;;;;;5004301;28;20199;-80
2023/12/24 05:36:35;;;;;;;31.60;7.73;;;9.00;90.10;;;;;;5017094;28;20504;-78
2023/12/24 05:39:01;;;;;;;26.67;7.33;;;9.00;90.10;;;;;;5040208;28;20845;-82
2023/12/24 05:41:28;;;;;;;26.20;7.03;;;9.00;90.10;;;;;;5040496;28;20355;-80
2023/12/24 05:43:53;;;;;;;31.10;7.00;;;9.00;90.10;;;;;;5028245;28;20049;-78
2023/12/24 05:46:20;;;;;;;30.87;7.37;;;9.00;90.10;;;;;;5025146;28;20057;-78
2023/12/24 05:48:46;;;;;;;31.20;6.77;;;9.00;90.20;;;;;;5026861;28;20057;-76
2023/12/24 05:51:11;;;;;;;25.37;7.10;;;9.00;90.10;;;;;;5027290;28;20042;-80
2023/12/24 05:53:37;;;;;;;31.50;7.07;;;9.10;90.20;;;;;;5027272;28;20072;-79
2023/12/24 05:56:03;;;;;;;31.77;6.20;;;9.10;90.10;;;;;;5026908;28;20041;-80
2023/12/24 05:58:29;;;;;;;28.10;7.30;;;9.10;90.10;;;;;;5027664;28;20042;-80
2023/12/24 06:00:55;;;;;;;32.43;7.50;;;9.20;90.10;;;;;;5026152;28;20069;-79
2023/12/24 06:03:21;;;;;;;31.50;7.00;;;9.20;90.00;;;;;;5027436;28;20098;-79
2023/12/24 06:05:46;;;;;;;30.30;6.57;;;9.20;90.00;;;;;;5026361;28;20049;-79
2023/12/24 06:08:16;;;;;;;35.40;7.30;;;9.20;90.00;;;;;;5039604;28;20056;-80
2023/12/24 06:10:42;;;;;;;33.90;7.00;;;9.20;90.00;;;;;;5022761;28;20053;-79
2023/12/24 06:13:07;;;;;;;29.30;6.40;;;9.20;90.00;;;;;;5026817;28;20497;-80
2023/12/24 06:15:33;;;;;;;30.47;6.60;;;9.20;90.00;;;;;;5026654;28;20104;-82
2023/12/24 06:17:59;;;;;;;26.87;6.43;;;9.20;90.00;;;;;;5024453;28;20095;-79
2023/12/24 06:20:25;;;;;;;31.67;7.13;;;9.20;89.90;;;;;;5025902;28;20049;-79
2023/12/24 06:22:50;;;;;;;26.50;6.20;;;9.20;90.00;;;;;;5026777;28;20064;-79
2023/12/24 06:25:18;;;;;;;27.77;5.40;;;9.20;89.90;;;;;;5025941;28;20501;-80
2023/12/24 06:27:43;;;;;;;25.70;5.77;;;9.20;89.90;;;;;;5025726;28;20049;-78
2023/12/24 06:30:10;;;;;;;28.40;6.50;;;9.20;90.00;;;;;;5025547;28;20068;-79
2023/12/24 06:32:35;;;;;;;30.20;6.27;;;9.20;90.00;;;;;;5027069;28;20512;-80
2023/12/24 06:35:01;;;;;;;29.23;5.40;;;9.20;90.00;;;;;;5026694;28;20175;-81
2023/12/24 06:37:27;;;;;;;22.73;5.73;;;9.20;90.00;;;;;;5009412;28;20052;-77
2023/12/24 06:39:53;;;;;;;23.67;5.03;;;9.20;90.10;;;;;;5026400;28;20049;-79
2023/12/24 06:42:18;;;;;;;22.40;5.20;;;9.20;90.10;;;;;;5020805;28;20064;-78
2023/12/24 06:44:44;;;;;;;19.10;5.40;;;9.20;90.10;;;;;;5026200;28;20111;-79
2023/12/24 06:47:09;;;;;;;14.63;4.93;;;9.30;90.10;;;;;;5026212;28;20046;-80
2023/12/24 06:49:35;;;;;;;25.53;5.27;;;9.30;90.10;;;;;;5026872;28;20065;-80
2023/12/24 06:52:01;;;;;;;24.43;5.53;;;9.40;90.20;;;;;;5026671;28;20052;-80
2023/12/24 06:54:26;;;;;;;22.73;5.37;;;9.40;90.10;;;;;;5025893;28;20431;-82
2023/12/24 06:56:52;;;;;;;19.67;5.30;;;9.40;90.20;;;;;;5018548;28;20053;-79
2023/12/24 06:59:18;;;;;;;25.77;5.40;;;9.40;90.20;;;;;;5011770;28;20057;-80
2023/12/24 07:01:44;;;;;;;20.33;4.53;;;9.40;90.20;;;;;;5025870;28;20136;-79
2023/12/24 07:04:09;;;;;;;18.83;5.30;;;9.40;90.30;;;;;;5026793;28;20080;-80
2023/12/24 07:06:35;;;;;;;24.23;5.70;;;9.40;90.20;;;;;;5025647;28;20064;-80
2023/12/24 07:09:01;;;;;;;19.17;4.67;;;9.40;90.20;;;;;;5026731;28;20107;-80
2023/12/24 07:11:26;;;;;;;21.80;5.10;;;9.40;90.20;;;;;;5025877;28;20064;-79
2023/12/24 07:13:52;;;;;;;25.40;5.33;;;9.50;90.00;;;;;;5025926;28;20163;-81
2023/12/24 07:16:17;;;;;;;21.70;4.67;;;9.50;90.00;;;;;;5026262;28;20056;-79
2023/12/24 07:18:43;;;;;;;24.27;5.13;;;9.50;89.80;;;;;;5026251;28;20045;-78
2023/12/24 07:21:09;;;;;;;24.50;5.00;;;9.50;89.60;;;;;;5024506;28;20115;-83
2023/12/24 07:23:34;;;;;;;31.77;5.23;;;9.50;89.50;;;;;;5026221;28;20108;-79
2023/12/24 07:26:00;;;;;;;28.07;5.50;;;9.50;89.40;;;;;;5025941;28;20057;-79
2023/12/24 07:28:26;;;;;;;20.90;4.37;;;9.50;89.20;;;;;;5025264;28;20053;-80
2023/12/24 07:30:51;;;;;;;25.93;4.60;;;9.60;89.20;;;;;;5025152;28;20102;-79
2023/12/24 07:33:17;;;;;;;27.40;4.90;;;9.60;89.10;;;;;;5025050;28;20049;-80
2023/12/24 07:35:43;;;;;;;22.97;4.17;;;9.60;88.80;;;;;;5025194;28;20056;-79
2023/12/24 07:38:08;;;;;;;29.03;5.03;;;9.60;88.70;;;;;;5025574;28;20044;-82
2023/12/24 07:40:34;;;;;;;26.53;4.47;;;9.70;88.60;;;;;;5025838;28;20065;-79
2023/12/24 07:43:00;;;;;;;26.83;4.43;;;9.70;88.60;;;;;;5018046;28;20054;-83
2023/12/24 07:45:27;;;;;;;24.90;4.57;;;9.70;88.50;;;;;;5024895;28;20049;-80
2023/12/24 07:47:53;;;;;;;24.23;4.80;;;9.70;88.30;;;;;;5025798;28;20057;-81
2023/12/24 07:50:18;;;;;;;27.70;4.80;;;9.70;88.30;;;;;;5026438;28;20046;-82
2023/12/24 07:52:44;;;;;;;16.07;4.00;;;9.80;88.20;;;;;;5026105;28;20572;-79
2023/12/24 07:55:10;;;;;;;24.87;4.67;;;9.70;88.30;;;;;;5006714;28;20038;-79
2023/12/24 07:57:35;;;;;;;23.33;4.97;;;9.70;88.40;;;;;;5007169;28;20390;-76
2023/12/24 08:00:03;;;;;;;21.03;5.00;;;9.80;88.50;;;;;;5021278;28;20053;-81
2023/12/24 08:02:29;;;;;;;23.40;5.20;;;9.70;88.70;;;;;;5029892;28;20053;-82
2023/12/24 08:04:55;;;;;;;24.47;5.27;;;9.70;88.70;;;;;;5029657;28;20072;-82
2023/12/24 08:07:21;;;;;;;27.50;5.17;;;9.70;88.80;;;;;;5030127;28;20076;-83
2023/12/24 08:09:47;;;;;;;26.60;5.80;;;9.70;88.90;;;;;;5026938;28;20489;-81
2023/12/24 08:12:13;;;;;;;23.50;6.07;;;9.70;88.90;;;;;;5028977;28;20053;-83
2023/12/24 08:14:39;;;;;;;22.90;4.87;;;9.70;89.00;;;;;;5030281;28;20440;-79
2023/12/24 08:17:05;;;;;;;28.07;5.53;;;9.70;89.10;;;;;;5028972;28;20060;-79
2023/12/24 08:19:30;;;;;;;27.43;6.10;;;9.70;89.20;;;;;;5028956;28;20412;-80
2023/12/24 08:21:56;;;;;;;27.40;5.63;;;9.70;89.20;;;;;;5028895;28;20092;-82
2023/12/24 08:24:22;;;;;;;29.27;6.47;;;9.70;89.20;;;;;;5028940;28;20058;-81
2023/12/24 08:26:48;;;;;;;31.37;6.03;;;9.70;89.20;;;;;;5028787;28;20073;-79
2023/12/24 08:29:14;;;;;;;29.13;5.67;;;9.70;89.20;;;;;;5030060;28;20046;-80
2023/12/24 08:31:39;;;;;;;27.20;5.70;;;9.70;89.20;;;;;;5029008;28;20063;-82
2023/12/24 08:34:05;;;;;;;24.07;6.00;;;9.70;89.30;;;;;;5027994;28;20664;-80
2023/12/24 08:36:30;;;;;;;30.83;5.10;;;9.70;89.30;;;;;;5029382;28;20054;-79
2023/12/24 08:38:56;;;;;;;29.37;5.63;;;9.80;89.30;;;;;;5028667;28;20053;-79
2023/12/24 08:41:22;;;;;;;24.97;5.23;;;9.70;89.30;;;;;;5043985;28;20045;-80
2023/12/24 08:43:48;;;;;;;28.93;5.90;;;9.70;89.40;;;;;;5022953;28;20080;-81
2023/12/24 08:46:13;;;;;;;30.03;5.47;;;9.70;89.50;;;;;;5029159;28;20045;-79
2023/12/24 08:48:39;;;;;;;27.00;5.60;;;9.80;89.50;;;;;;5029564;28;20053;-82
2023/12/24 08:51:05;;;;;;;29.60;6.07;;;9.80;89.40;;;;;;5027580;28;20136;-80
2023/12/24 08:53:30;;;;;;;25.10;5.97;;;9.80;89.50;;;;;;5024837;28;20096;-79
2023/12/24 08:55:56;;;;;;;30.47;6.77;;;9.80;89.50;;;;;;5025145;28;20056;-81
2023/12/24 08:58:22;;;;;;;24.20;5.97;;;9.80;89.60;;;;;;5026621;28;20182;-80
2023/12/24 09:00:47;;;;;;;29.63;6.37;;;9.80;89.60;;;;;;5025117;28;20132;-81
2023/12/24 09:03:15;;;;;;;23.90;6.07;;;9.80;89.60;;;;;;5025028;28;20050;-79
2023/12/24 09:05:41;;;;;;;29.40;5.77;;;9.90;89.50;;;;;;5025102;28;20128;-79
2023/12/24 09:08:06;;;;;;;25.33;4.60;;;9.90;89.60;;;;;;5021738;28;20043;-76
2023/12/24 09:10:32;;;;;;;21.80;5.63;;;9.90;89.50;;;;;;5020762;28;20057;-78
2023/12/24 09:12:57;;;;;;;30.03;5.47;;;9.90;89.50;;;;;;5025168;28;20108;-80
2023/12/24 09:15:23;;;;;;;24.07;5.30;;;9.90;89.50;;;;;;5036883;28;20046;-78
2023/12/24 09:17:49;;;;;;;23.00;5.07;;;10.00;89.50;;;;;;5024598;28;20061;-79
2023/12/24 09:20:14;;;;;;;23.83;4.80;;;10.00;89.50;;;;;;5025539;28;20136;-80
2023/12/24 09:22:40;;;;;;;24.33;4.53;;;10.00;89.40;;;;;;5025768;28;20575;-79
2023/12/24 09:25:06;;;;;;;26.70;4.90;;;10.00;89.40;;;;;;5018079;28;20157;-80
2023/12/24 09:27:32;;;;;;;23.47;4.47;;;10.10;89.30;;;;;;5023284;28;20099;-79
2023/12/24 09:30:03;;;;;;;28.00;4.90;;;10.10;89.10;;;;;;5025477;28;20061;-80
2023/12/24 09:32:32;;;;;;;20.43;4.50;;;10.10;89.00;;;;;;5024152;28;20896;-82
2023/12/24 09:34:58;;;;;;;22.07;3.63;;;10.10;88.90;;;;;;5023943;28;20056;-79
2023/12/24 09:37:27;;;;;;;22.40;4.90;;;10.20;88.70;;;;;;5032915;28;20053;-79
2023/12/24 09:39:53;;;;;;;29.07;4.43;;;10.20;88.50;;;;;;5025350;28;20128;-80
2023/12/24 09:42:18;;;;;;;23.03;4.40;;;10.20;88.50;;;;;;5011122;28;20583;-82
2023/12/24 09:44:45;;;;;;;26.60;4.27;;;10.30;88.40;;;;;;5023682;28;20079;-83
2023/12/24 09:47:11;;;;;;;24.60;4.17;;;10.30;88.30;;;;;;5016014;28;20492;-79
2023/12/24 09:49:36;;;;;;;22.70;4.17;;;10.30;88.20;;;;;;5025214;28;20352;-78
2023/12/24 09:52:02;;;;;;;20.13;4.30;;;10.30;88.10;;;;;;5024356;28;20643;-80
2023/12/24 09:54:28;;;;;;;19.70;4.07;;;10.30;88.00;;;;;;5024458;28;20164;-79
2023/12/24 09:56:55;;;;;;;22.73;3.97;;;10.30;88.00;;;;;;5023839;28;20574;-80
2023/12/24 09:59:21;;;;;;;20.07;4.07;;;10.30;88.00;;;;;;5022974;28;20586;-82
2023/12/24 10:01:47;;;;;;;19.93;3.97;;;10.30;88.20;;;;;;5023234;28;20057;-81
2023/12/24 10:04:13;;;;;;;20.97;3.67;;;10.40;88.10;;;;;;5025166;28;20076;-81
2023/12/24 10:06:55;;;;;;;26.57;4.17;;;10.40;88.20;;;;;;5006212;28;20049;-81
2023/12/24 10:09:21;;;;;;;;;;;10.30;88.50;;;;;;5021966;28;20054;-80
2023/12/24 10:12:08;;;;;;;22.30;3.93;;;10.30;88.70;;;;;;5024138;28;19979;-80
2023/12/24 10:14:36;;;;;;;18.83;4.20;;;10.30;88.60;;;;;;5024083;28;20438;-80
2023/12/24 10:17:03;;;;;;;22.63;4.40;;;10.40;88.40;;;;;;5022823;28;20100;-78
2023/12/24 10:19:30;;;;;;;25.17;4.73;;;10.40;88.40;;;;;;5024475;28;20575;-80
2023/12/24 10:22:06;;;;;;;22.13;3.70;;;10.40;88.20;;;;;;5023213;28;20079;-78
2023/12/24 10:24:35;;;;;;;28.43;3.87;;;10.50;88.10;;;;;;5015819;28;20057;-81
2023/12/24 10:27:08;;;;;;;19.30;3.53;;;10.50;87.80;;;;;;5002699;28;20633;-82
2023/12/24 10:29:36;;;;;;;17.67;3.67;;;10.60;87.80;;;;;;5024078;28;20062;-80
2023/12/24 10:32:02;;;;;;;21.43;4.07;;;10.60;87.50;;;;;;5024066;28;20401;-81
2023/12/24 10:34:29;;;;;;;16.73;3.47;;;10.70;87.40;;;;;;5024192;28;20064;-80
2023/12/24 10:36:55;;;;;;;14.40;2.90;;;10.70;87.20;;;;;;5023940;28;20068;-80
2023/12/24 10:39:24;;;;;;;19.17;3.90;;;10.70;87.20;;;;;;5024052;28;20493;-79
2023/12/24 10:41:51;;;;;;;15.50;3.20;;;10.80;86.90;;;;;;5025905;28;20041;-83
2023/12/24 10:44:17;;;;;;;15.87;3.30;;;10.80;86.50;;;;;;5036288;28;20083;-80
2023/12/24 10:46:43;;;;;;;16.50;3.30;;;10.90;86.50;;;;;;5042795;28;20080;-81
2023/12/24 10:49:09;;;;;;;14.27;3.07;;;10.90;86.40;;;;;;5043290;28;20141;-77
2023/12/24 10:51:34;;;;;;;19.63;3.63;;;11.00;86.10;;;;;;5032837;28;20899;-80
2023/12/24 10:54:02;;;;;;;12.90;2.80;;;11.00;85.80;;;;;;5034803;28;20053;-78
2023/12/24 10:56:32;;;;;;;18.23;3.03;;;11.00;86.00;;;;;;5040459;28;20071;-82
2023/12/24 10:59:06;;;;;;;17.47;3.33;;;11.10;86.00;;;;;;5032591;28;20056;-82
2023/12/24 11:01:31;;;;;;;15.27;3.00;;;11.10;85.70;;;;;;5021562;28;20049;-79
2023/12/24 11:03:57;;;;;;;17.23;3.20;;;11.10;85.70;;;;;;5023382;28;20049;-79
2023/12/24 11:06:38;;;;;;;14.53;3.03;;;11.10;85.70;;;;;;5022998;28;20479;-81
2023/12/24 11:09:24;;;;;;;20.23;3.17;;;11.10;85.50;;;;;;5023620;28;20115;-81
2023/12/24 11:11:57;;;;;;;16.73;3.13;;;11.10;85.50;;;;;;5023532;28;20053;-80
2023/12/24 11:14:39;;;;;;;17.07;3.37;;;11.10;85.80;;;;;;5022779;28;20053;-79
2023/12/24 11:17:08;;;;;;;18.90;3.47;;;11.10;86.10;;;;;;5023237;28;20049;-81
2023/12/24 11:19:35;;;;;;;19.03;3.20;;;11.00;86.40;;;;;;5023202;28;20061;-79
2023/12/24 11:22:12;;;;;;;17.90;3.70;;;10.90;86.70;;;;;;5023696;28;20076;-82
2023/12/24 11:24:42;;;;;;;17.17;3.63;;;10.90;86.90;;;;;;5020610;28;20138;-79
2023/12/24 11:27:11;;;;;;;16.83;3.33;;;10.90;87.00;;;;;;5022434;28;20210;-83
2023/12/24 11:29:40;;;;;;;24.27;4.13;;;10.80;87.10;;;;;;5031780;28;20515;-83
2023/12/24 11:32:24;;;;;;;16.73;3.30;;;10.90;87.10;;;;;;5041792;28;20265;-82
2023/12/24 11:34:53;;;;;;;19.27;3.70;;;10.80;87.20;;;;;;5020848;28;20425;-80
2023/12/24 11:37:35;;;;;;;17.80;3.37;;;10.90;87.10;;;;;;5038671;28;20060;-83
2023/12/24 11:40:15;;;;;;;18.77;3.60;;;10.90;87.00;;;;;;5043051;28;20056;-83
2023/12/24 11:42:51;;;;;;;17.37;3.80;;;10.90;86.70;;;;;;5021819;28;20057;-81
2023/12/24 11:45:21;;;;;;;19.43;3.20;;;10.90;86.80;;;;;;5031380;28;20063;-82
2023/12/24 11:47:47;;;;;;;16.50;3.57;;;11.00;86.70;;;;;;5031460;28;20037;-80
2023/12/24 11:50:13;;;;;;;20.33;3.77;;;11.00;86.50;;;;;;5036981;28;20108;-82
2023/12/24 11:52:46;;;;;;;18.20;3.40;;;11.00;86.40;;;;;;5040256;28;20049;-83
2023/12/24 11:55:19;;;;;;;17.47;3.47;;;11.10;86.30;;;;;;5025274;28;20286;-83
2023/12/24 11:57:46;;;;;;;17.88;3.58;;;11.10;86.10;;;;;;5025348;28;20053;-82
2023/12/24 12:00:13;;;;;;;19.17;3.97;;;11.10;85.90;;;;;;5021358;28;20459;-81
2023/12/24 12:02:41;;;;;;;16.70;3.10;;;11.10;85.90;;;;;;4976492;28;20058;-78
2023/12/24 12:05:07;;;;;;;14.43;3.35;;;11.10;85.90;;;;;;5004303;28;20042;-81
2023/12/24 12:07:34;;;;;;;18.58;3.80;;;11.10;85.90;;;;;;5023909;28;20386;-82
2023/12/24 12:09:59;;;;;;;21.67;3.63;;;11.10;86.00;;;;;;5005390;28;20054;-81
2023/12/24 12:12:25;;;;;;;17.90;2.73;;;11.10;86.00;;;;;;5006797;28;20060;-81
2023/12/24 12:14:51;;;;;;;18.33;3.43;;;11.20;86.00;;;;;;5007817;28;20050;-84
2023/12/24 12:17:16;;;;;;;17.98;3.35;;;11.10;85.90;;;;;;5008956;28;20108;-82
2023/12/24 12:19:42;;;;;;;21.75;3.63;;;11.20;86.00;;;;;;5004351;28;20057;-80
2023/12/24 12:22:07;;;;;;;19.10;3.95;;;11.10;86.00;;;;;;5002069;28;20077;-82
2023/12/24 12:24:34;;;;;;;19.30;4.18;;;11.10;85.90;;;;;;5010281;28;20054;-81
2023/12/24 12:26:59;;;;;;;21.58;4.35;;;11.20;85.90;;;;;;5003216;28;20042;-83
2023/12/24 12:29:25;;;;;;;17.73;3.50;;;11.30;85.80;;;;;;5007098;28;20147;-81
2023/12/24 12:31:57;;;;;;;19.27;4.10;;;11.30;85.80;;;;;;5003622;28;20054;-83
2023/12/24 12:34:22;;;;;;;24.23;4.33;;;11.30;85.70;;;;;;5036392;28;20128;-82
2023/12/24 12:36:48;;;;;;;23.13;4.00;;;11.30;85.60;;;;;;5004033;28;20097;-81
2023/12/24 12:39:14;;;;;;;20.13;3.70;;;11.40;85.60;;;;;;5004910;28;20046;-82
2023/12/24 12:41:39;;;;;;;23.97;4.20;;;11.30;85.70;;;;;;5003576;28;20048;-80
2023/12/24 12:44:05;;;;;;;14.27;3.37;;;11.30;85.70;;;;;;5011250;28;20050;-80